Weso, Nevada
Current Conditions -  °F | °C
As of 11:56 AM on Friday 21 Nov 2014 (Local Time) from KWMC Reporting Station
Few Clouds Few Clouds  
Wind Chill: 49°   Ceiling: Unl
Heat Index: 49°   Visibility: 10mi
Dew Point: 33°   Wind: 0mph
Humidity: 54%   Direction: NA
Pressure: 30.02"   Gusts: NA
Location:  41.1353°N, 118.186°W
Report Text: KWMC 211956Z AUTO 00000KT 10SM FEW037 09/01 A3002 RMK AO2 SLP164 T00940006
Loading
Personal Weather Stations






























Interactive Weather Map New forecast layout! Learn more

10-Day Weather Forecast

Advertisements
Track Severe Weather on mobile